sensor_id;sensor_type;location;lat;lon;timestamp;P1;durP1;ratioP1;P2;durP2;ratioP2
19189;SDS011;9727;50.200;19.038;2023-08-07T00:00:12;15.87;;;9.30;;
19189;SDS011;9727;50.200;19.038;2023-08-07T00:02:51;11.30;;;8.67;;
19189;SDS011;9727;50.200;19.038;2023-08-07T00:05:20;13.47;;;8.43;;
19189;SDS011;9727;50.200;19.038;2023-08-07T00:07:47;11.83;;;8.20;;
19189;SDS011;9727;50.200;19.038;2023-08-07T00:10:20;9.33;;;8.43;;
19189;SDS011;9727;50.200;19.038;2023-08-07T00:12:46;9.33;;;7.70;;
19189;SDS011;9727;50.200;19.038;2023-08-07T00:15:20;9.57;;;8.57;;
19189;SDS011;9727;50.200;19.038;2023-08-07T00:17:46;15.33;;;8.37;;
19189;SDS011;9727;50.200;19.038;2023-08-07T00:20:21;10.30;;;8.30;;
19189;SDS011;9727;50.200;19.038;2023-08-07T00:22:48;11.40;;;7.97;;
19189;SDS011;9727;50.200;19.038;2023-08-07T00:25:22;8.60;;;7.57;;
19189;SDS011;9727;50.200;19.038;2023-08-07T00:27:49;9.23;;;8.23;;
19189;SDS011;9727;50.200;19.038;2023-08-07T00:30:22;9.33;;;8.13;;
19189;SDS011;9727;50.200;19.038;2023-08-07T00:32:49;8.87;;;7.07;;
19189;SDS011;9727;50.200;19.038;2023-08-07T00:35:22;9.50;;;7.27;;
19189;SDS011;9727;50.200;19.038;2023-08-07T00:37:49;11.87;;;7.67;;
19189;SDS011;9727;50.200;19.038;2023-08-07T00:40:18;7.77;;;6.97;;
19189;SDS011;9727;50.200;19.038;2023-08-07T00:42:45;7.87;;;7.07;;
19189;SDS011;9727;50.200;19.038;2023-08-07T00:45:11;7.57;;;6.77;;
19189;SDS011;9727;50.200;19.038;2023-08-07T00:47:44;8.97;;;7.50;;
19189;SDS011;9727;50.200;19.038;2023-08-07T00:50:11;8.03;;;7.23;;
19189;SDS011;9727;50.200;19.038;2023-08-07T00:52:39;10.80;;;7.53;;
19189;SDS011;9727;50.200;19.038;2023-08-07T00:55:06;9.10;;;7.93;;
19189;SDS011;9727;50.200;19.038;2023-08-07T00:57:32;12.00;;;8.57;;
19189;SDS011;9727;50.200;19.038;2023-08-07T00:59:59;12.37;;;9.53;;
19189;SDS011;9727;50.200;19.038;2023-08-07T01:02:26;9.40;;;8.03;;
19189;SDS011;9727;50.200;19.038;2023-08-07T01:04:52;12.93;;;8.70;;
19189;SDS011;9727;50.200;19.038;2023-08-07T01:07:19;10.63;;;8.43;;
19189;SDS011;9727;50.200;19.038;2023-08-07T01:09:48;11.93;;;8.77;;
19189;SDS011;9727;50.200;19.038;2023-08-07T01:12:22;12.90;;;9.10;;
19189;SDS011;9727;50.200;19.038;2023-08-07T01:14:51;11.83;;;8.80;;
19189;SDS011;9727;50.200;19.038;2023-08-07T01:17:20;14.00;;;9.17;;
19189;SDS011;9727;50.200;19.038;2023-08-07T01:19:48;9.63;;;8.63;;
19189;SDS011;9727;50.200;19.038;2023-08-07T01:22:20;11.47;;;9.03;;
19189;SDS011;9727;50.200;19.038;2023-08-07T01:24:48;11.93;;;8.90;;
19189;SDS011;9727;50.200;19.038;2023-08-07T01:27:24;10.70;;;8.60;;
19189;SDS011;9727;50.200;19.038;2023-08-07T01:29:54;13.63;;;9.10;;
19189;SDS011;9727;50.200;19.038;2023-08-07T01:32:24;11.83;;;8.77;;
19189;SDS011;9727;50.200;19.038;2023-08-07T01:34:52;13.67;;;9.83;;
19189;SDS011;9727;50.200;19.038;2023-08-07T01:37:21;11.67;;;9.67;;
19189;SDS011;9727;50.200;19.038;2023-08-07T01:39:49;12.07;;;10.00;;
19189;SDS011;9727;50.200;19.038;2023-08-07T01:42:18;12.93;;;9.73;;
19189;SDS011;9727;50.200;19.038;2023-08-07T01:44:44;11.63;;;9.37;;
19189;SDS011;9727;50.200;19.038;2023-08-07T01:47:11;11.10;;;9.27;;
19189;SDS011;9727;50.200;19.038;2023-08-07T01:49:43;11.07;;;9.17;;
19189;SDS011;9727;50.200;19.038;2023-08-07T01:52:10;14.73;;;9.57;;
19189;SDS011;9727;50.200;19.038;2023-08-07T01:54:39;12.63;;;9.37;;
19189;SDS011;9727;50.200;19.038;2023-08-07T01:57:06;12.57;;;8.87;;
19189;SDS011;9727;50.200;19.038;2023-08-07T01:59:32;11.53;;;8.80;;
19189;SDS011;9727;50.200;19.038;2023-08-07T02:01:59;12.20;;;8.80;;
19189;SDS011;9727;50.200;19.038;2023-08-07T02:04:25;12.70;;;9.10;;
19189;SDS011;9727;50.200;19.038;2023-08-07T02:06:52;13.77;;;9.33;;
19189;SDS011;9727;50.200;19.038;2023-08-07T02:09:19;10.37;;;8.47;;
19189;SDS011;9727;50.200;19.038;2023-08-07T02:11:47;9.67;;;8.20;;
19189;SDS011;9727;50.200;19.038;2023-08-07T02:14:18;9.80;;;7.97;;
19189;SDS011;9727;50.200;19.038;2023-08-07T02:16:45;9.20;;;8.20;;
19189;SDS011;9727;50.200;19.038;2023-08-07T02:19:12;10.13;;;8.10;;
19189;SDS011;9727;50.200;19.038;2023-08-07T02:21:44;10.33;;;7.80;;
19189;SDS011;9727;50.200;19.038;2023-08-07T02:24:10;10.10;;;8.30;;
19189;SDS011;9727;50.200;19.038;2023-08-07T02:26:43;13.93;;;8.60;;
19189;SDS011;9727;50.200;19.038;2023-08-07T02:29:11;11.23;;;8.63;;
19189;SDS011;9727;50.200;19.038;2023-08-07T02:31:38;9.27;;;8.37;;
19189;SDS011;9727;50.200;19.038;2023-08-07T02:34:07;10.10;;;7.63;;
19189;SDS011;9727;50.200;19.038;2023-08-07T02:36:36;9.30;;;7.63;;
19189;SDS011;9727;50.200;19.038;2023-08-07T02:39:03;10.87;;;8.50;;
19189;SDS011;9727;50.200;19.038;2023-08-07T02:41:30;9.17;;;7.70;;
19189;SDS011;9727;50.200;19.038;2023-08-07T02:43:57;9.63;;;8.47;;
19189;SDS011;9727;50.200;19.038;2023-08-07T02:46:25;9.40;;;8.13;;
19189;SDS011;9727;50.200;19.038;2023-08-07T02:48:51;9.87;;;8.83;;
19189;SDS011;9727;50.200;19.038;2023-08-07T02:51:19;9.63;;;8.70;;
19189;SDS011;9727;50.200;19.038;2023-08-07T02:53:48;9.80;;;7.87;;
19189;SDS011;9727;50.200;19.038;2023-08-07T02:56:19;9.43;;;8.43;;
19189;SDS011;9727;50.200;19.038;2023-08-07T02:58:46;11.50;;;8.93;;
19189;SDS011;9727;50.200;19.038;2023-08-07T03:01:17;11.00;;;9.23;;
19189;SDS011;9727;50.200;19.038;2023-08-07T03:03:47;11.40;;;9.00;;
19189;SDS011;9727;50.200;19.038;2023-08-07T03:06:18;14.60;;;9.40;;
19189;SDS011;9727;50.200;19.038;2023-08-07T03:08:45;11.50;;;9.27;;
19189;SDS011;9727;50.200;19.038;2023-08-07T03:11:11;14.23;;;9.03;;
19189;SDS011;9727;50.200;19.038;2023-08-07T03:13:42;12.63;;;9.10;;
19189;SDS011;9727;50.200;19.038;2023-08-07T03:16:09;10.10;;;9.00;;
19189;SDS011;9727;50.200;19.038;2023-08-07T03:18:36;11.27;;;8.83;;
19189;SDS011;9727;50.200;19.038;2023-08-07T03:21:04;12.67;;;10.00;;
19189;SDS011;9727;50.200;19.038;2023-08-07T03:23:31;11.03;;;9.70;;
19189;SDS011;9727;50.200;19.038;2023-08-07T03:26:04;12.00;;;9.40;;
19189;SDS011;9727;50.200;19.038;2023-08-07T03:28:30;11.30;;;9.87;;
19189;SDS011;9727;50.200;19.038;2023-08-07T03:30:57;9.73;;;8.73;;
19189;SDS011;9727;50.200;19.038;2023-08-07T03:33:24;13.23;;;9.77;;
19189;SDS011;9727;50.200;19.038;2023-08-07T03:35:51;9.83;;;8.80;;
19189;SDS011;9727;50.200;19.038;2023-08-07T03:38:20;10.87;;;9.40;;
19189;SDS011;9727;50.200;19.038;2023-08-07T03:40:47;11.23;;;8.97;;
19189;SDS011;9727;50.200;19.038;2023-08-07T03:43:18;10.87;;;8.87;;
19189;SDS011;9727;50.200;19.038;2023-08-07T03:45:45;9.53;;;8.23;;
19189;SDS011;9727;50.200;19.038;2023-08-07T03:48:11;11.60;;;8.27;;
19189;SDS011;9727;50.200;19.038;2023-08-07T03:50:42;9.13;;;7.60;;
19189;SDS011;9727;50.200;19.038;2023-08-07T03:53:09;10.03;;;8.00;;
19189;SDS011;9727;50.200;19.038;2023-08-07T03:55:37;8.97;;;8.03;;
19189;SDS011;9727;50.200;19.038;2023-08-07T03:58:04;12.33;;;7.23;;
19189;SDS011;9727;50.200;19.038;2023-08-07T04:00:31;9.13;;;7.10;;
19189;SDS011;9727;50.200;19.038;2023-08-07T04:02:58;10.10;;;7.80;;
19189;SDS011;9727;50.200;19.038;2023-08-07T04:05:24;10.07;;;8.03;;
19189;SDS011;9727;50.200;19.038;2023-08-07T04:07:52;11.57;;;7.60;;
19189;SDS011;9727;50.200;19.038;2023-08-07T04:10:19;8.93;;;8.00;;
19189;SDS011;9727;50.200;19.038;2023-08-07T04:12:47;10.53;;;7.27;;
19189;SDS011;9727;50.200;19.038;2023-08-07T04:15:22;11.90;;;7.30;;
19189;SDS011;9727;50.200;19.038;2023-08-07T04:17:48;7.70;;;6.57;;
19189;SDS011;9727;50.200;19.038;2023-08-07T04:20:23;8.43;;;6.77;;
19189;SDS011;9727;50.200;19.038;2023-08-07T04:22:49;9.37;;;6.27;;
19189;SDS011;9727;50.200;19.038;2023-08-07T04:25:22;8.47;;;6.00;;
19189;SDS011;9727;50.200;19.038;2023-08-07T04:27:50;6.40;;;5.80;;
19189;SDS011;9727;50.200;19.038;2023-08-07T04:30:20;7.20;;;6.40;;
19189;SDS011;9727;50.200;19.038;2023-08-07T04:32:47;8.17;;;6.13;;
19189;SDS011;9727;50.200;19.038;2023-08-07T04:35:19;8.50;;;6.83;;
19189;SDS011;9727;50.200;19.038;2023-08-07T04:37:45;6.90;;;6.20;;
19189;SDS011;9727;50.200;19.038;2023-08-07T04:40:12;9.60;;;6.10;;
19189;SDS011;9727;50.200;19.038;2023-08-07T04:42:45;7.57;;;5.53;;
19189;SDS011;9727;50.200;19.038;2023-08-07T04:45:18;7.43;;;5.47;;
19189;SDS011;9727;50.200;19.038;2023-08-07T04:47:45;8.03;;;5.40;;
19189;SDS011;9727;50.200;19.038;2023-08-07T04:50:12;7.13;;;5.20;;
19189;SDS011;9727;50.200;19.038;2023-08-07T04:52:52;7.00;;;5.57;;
19189;SDS011;9727;50.200;19.038;2023-08-07T04:55:19;9.83;;;5.43;;
19189;SDS011;9727;50.200;19.038;2023-08-07T04:57:45;7.80;;;5.20;;
19189;SDS011;9727;50.200;19.038;2023-08-07T05:00:19;5.77;;;5.23;;
19189;SDS011;9727;50.200;19.038;2023-08-07T05:02:46;5.77;;;4.70;;
19189;SDS011;9727;50.200;19.038;2023-08-07T05:05:19;6.03;;;5.03;;
19189;SDS011;9727;50.200;19.038;2023-08-07T05:07:46;7.70;;;4.60;;
19189;SDS011;9727;50.200;19.038;2023-08-07T05:10:18;7.93;;;4.47;;
19189;SDS011;9727;50.200;19.038;2023-08-07T05:12:44;6.50;;;4.03;;
19189;SDS011;9727;50.200;19.038;2023-08-07T05:15:11;4.70;;;3.20;;
19189;SDS011;9727;50.200;19.038;2023-08-07T05:17:42;9.37;;;3.20;;
19189;SDS011;9727;50.200;19.038;2023-08-07T05:20:09;3.43;;;2.57;;
19189;SDS011;9727;50.200;19.038;2023-08-07T05:22:36;5.30;;;2.50;;
19189;SDS011;9727;50.200;19.038;2023-08-07T05:25:03;3.03;;;2.33;;
19189;SDS011;9727;50.200;19.038;2023-08-07T05:27:29;3.67;;;2.07;;
19189;SDS011;9727;50.200;19.038;2023-08-07T05:29:56;2.40;;;2.20;;
19189;SDS011;9727;50.200;19.038;2023-08-07T05:32:23;4.50;;;2.10;;
19189;SDS011;9727;50.200;19.038;2023-08-07T05:34:54;2.70;;;1.90;;
19189;SDS011;9727;50.200;19.038;2023-08-07T05:37:20;3.73;;;1.83;;
19189;SDS011;9727;50.200;19.038;2023-08-07T05:39:47;3.10;;;1.60;;
19189;SDS011;9727;50.200;19.038;2023-08-07T05:42:19;1.93;;;1.80;;
19189;SDS011;9727;50.200;19.038;2023-08-07T05:44:46;2.10;;;1.80;;
19189;SDS011;9727;50.200;19.038;2023-08-07T05:47:20;3.50;;;2.03;;
19189;SDS011;9727;50.200;19.038;2023-08-07T05:49:47;2.07;;;1.97;;
19189;SDS011;9727;50.200;19.038;2023-08-07T05:52:19;1.83;;;1.73;;
19189;SDS011;9727;50.200;19.038;2023-08-07T05:54:47;2.27;;;1.80;;
19189;SDS011;9727;50.200;19.038;2023-08-07T05:57:19;4.13;;;1.80;;
19189;SDS011;9727;50.200;19.038;2023-08-07T05:59:46;3.90;;;1.70;;
19189;SDS011;9727;50.200;19.038;2023-08-07T06:02:19;2.73;;;1.60;;
19189;SDS011;9727;50.200;19.038;2023-08-07T06:04:46;3.83;;;1.70;;
19189;SDS011;9727;50.200;19.038;2023-08-07T06:07:29;3.87;;;1.53;;
19189;SDS011;9727;50.200;19.038;2023-08-07T06:09:56;3.87;;;1.63;;
19189;SDS011;9727;50.200;19.038;2023-08-07T06:12:23;1.93;;;1.60;;
19189;SDS011;9727;50.200;19.038;2023-08-07T06:14:50;4.33;;;1.60;;
19189;SDS011;9727;50.200;19.038;2023-08-07T06:17:19;2.93;;;1.80;;
19189;SDS011;9727;50.200;19.038;2023-08-07T06:19:47;1.93;;;1.60;;
19189;SDS011;9727;50.200;19.038;2023-08-07T06:22:18;1.93;;;1.60;;
19189;SDS011;9727;50.200;19.038;2023-08-07T06:24:46;1.73;;;1.63;;
19189;SDS011;9727;50.200;19.038;2023-08-07T06:27:20;2.53;;;1.90;;
19189;SDS011;9727;50.200;19.038;2023-08-07T06:29:47;3.70;;;1.93;;
19189;SDS011;9727;50.200;19.038;2023-08-07T06:32:16;2.17;;;2.07;;
19189;SDS011;9727;50.200;19.038;2023-08-07T06:34:46;3.60;;;2.23;;
19189;SDS011;9727;50.200;19.038;2023-08-07T06:37:21;3.93;;;2.00;;
19189;SDS011;9727;50.200;19.038;2023-08-07T06:39:50;2.90;;;2.17;;
19189;SDS011;9727;50.200;19.038;2023-08-07T06:42:19;1.83;;;1.73;;
19189;SDS011;9727;50.200;19.038;2023-08-07T06:44:46;3.07;;;1.93;;
19189;SDS011;9727;50.200;19.038;2023-08-07T06:47:22;4.87;;;1.90;;
19189;SDS011;9727;50.200;19.038;2023-08-07T06:49:52;1.83;;;1.70;;
19189;SDS011;9727;50.200;19.038;2023-08-07T06:52:20;1.70;;;1.53;;
19189;SDS011;9727;50.200;19.038;2023-08-07T06:54:47;3.33;;;1.50;;
19189;SDS011;9727;50.200;19.038;2023-08-07T06:57:21;2.73;;;1.80;;
19189;SDS011;9727;50.200;19.038;2023-08-07T06:59:48;1.70;;;1.60;;
19189;SDS011;9727;50.200;19.038;2023-08-07T07:02:18;3.00;;;1.63;;
19189;SDS011;9727;50.200;19.038;2023-08-07T07:04:44;4.23;;;1.50;;
19189;SDS011;9727;50.200;19.038;2023-08-07T07:07:11;1.73;;;1.40;;
19189;SDS011;9727;50.200;19.038;2023-08-07T07:09:38;2.20;;;1.60;;
19189;SDS011;9727;50.200;19.038;2023-08-07T07:12:06;1.60;;;1.50;;
19189;SDS011;9727;50.200;19.038;2023-08-07T07:14:34;5.60;;;1.70;;
19189;SDS011;9727;50.200;19.038;2023-08-07T07:17:01;1.70;;;1.30;;
19189;SDS011;9727;50.200;19.038;2023-08-07T07:19:28;3.40;;;1.53;;
19189;SDS011;9727;50.200;19.038;2023-08-07T07:21:54;2.07;;;1.30;;
19189;SDS011;9727;50.200;19.038;2023-08-07T07:24:21;2.17;;;1.47;;
19189;SDS011;9727;50.200;19.038;2023-08-07T07:26:48;1.97;;;1.70;;
19189;SDS011;9727;50.200;19.038;2023-08-07T07:29:18;1.70;;;1.43;;
19189;SDS011;9727;50.200;19.038;2023-08-07T07:31:46;4.67;;;1.53;;
19189;SDS011;9727;50.200;19.038;2023-08-07T07:34:25;2.03;;;1.67;;
19189;SDS011;9727;50.200;19.038;2023-08-07T07:36:52;2.10;;;1.60;;
19189;SDS011;9727;50.200;19.038;2023-08-07T07:39:20;2.17;;;1.50;;
19189;SDS011;9727;50.200;19.038;2023-08-07T07:41:47;1.77;;;1.67;;
19189;SDS011;9727;50.200;19.038;2023-08-07T07:44:20;2.67;;;1.50;;
19189;SDS011;9727;50.200;19.038;2023-08-07T07:46:48;2.20;;;1.40;;
19189;SDS011;9727;50.200;19.038;2023-08-07T07:49:23;2.33;;;1.60;;
19189;SDS011;9727;50.200;19.038;2023-08-07T07:51:50;1.60;;;1.50;;
19189;SDS011;9727;50.200;19.038;2023-08-07T07:54:19;7.97;;;2.10;;
19189;SDS011;9727;50.200;19.038;2023-08-07T07:56:46;2.20;;;1.67;;
19189;SDS011;9727;50.200;19.038;2023-08-07T07:59:12;1.70;;;1.60;;
19189;SDS011;9727;50.200;19.038;2023-08-07T08:01:46;5.17;;;2.00;;
19189;SDS011;9727;50.200;19.038;2023-08-07T08:04:20;4.00;;;1.90;;
19189;SDS011;9727;50.200;19.038;2023-08-07T08:06:47;1.60;;;1.50;;
19189;SDS011;9727;50.200;19.038;2023-08-07T08:09:18;2.43;;;1.87;;
19189;SDS011;9727;50.200;19.038;2023-08-07T08:11:45;1.87;;;1.73;;
19189;SDS011;9727;50.200;19.038;2023-08-07T08:14:20;2.27;;;1.90;;
19189;SDS011;9727;50.200;19.038;2023-08-07T08:16:46;3.47;;;1.70;;
19189;SDS011;9727;50.200;19.038;2023-08-07T08:19:20;4.70;;;1.70;;
19189;SDS011;9727;50.200;19.038;2023-08-07T08:21:46;2.83;;;1.70;;
19189;SDS011;9727;50.200;19.038;2023-08-07T08:24:19;3.97;;;1.90;;
19189;SDS011;9727;50.200;19.038;2023-08-07T08:26:46;1.90;;;1.80;;
19189;SDS011;9727;50.200;19.038;2023-08-07T08:29:14;2.03;;;1.83;;
19189;SDS011;9727;50.200;19.038;2023-08-07T08:31:46;2.17;;;1.70;;
19189;SDS011;9727;50.200;19.038;2023-08-07T08:34:20;2.30;;;1.90;;
19189;SDS011;9727;50.200;19.038;2023-08-07T08:36:48;2.23;;;1.87;;
19189;SDS011;9727;50.200;19.038;2023-08-07T08:39:21;2.10;;;1.90;;
19189;SDS011;9727;50.200;19.038;2023-08-07T08:41:49;1.83;;;1.73;;
19189;SDS011;9727;50.200;19.038;2023-08-07T08:44:21;1.93;;;1.30;;
19189;SDS011;9727;50.200;19.038;2023-08-07T08:46:48;1.70;;;1.60;;
19189;SDS011;9727;50.200;19.038;2023-08-07T08:49:20;1.63;;;1.50;;
19189;SDS011;9727;50.200;19.038;2023-08-07T08:51:51;2.70;;;1.43;;
19189;SDS011;9727;50.200;19.038;2023-08-07T08:54:21;1.77;;;1.60;;
19189;SDS011;9727;50.200;19.038;2023-08-07T08:56:51;1.73;;;1.63;;
19189;SDS011;9727;50.200;19.038;2023-08-07T08:59:22;1.83;;;1.60;;
19189;SDS011;9727;50.200;19.038;2023-08-07T09:01:50;2.30;;;1.80;;
19189;SDS011;9727;50.200;19.038;2023-08-07T09:04:23;2.60;;;1.67;;
19189;SDS011;9727;50.200;19.038;2023-08-07T09:06:49;3.70;;;1.90;;
19189;SDS011;9727;50.200;19.038;2023-08-07T09:09:20;1.30;;;1.20;;
19189;SDS011;9727;50.200;19.038;2023-08-07T09:11:47;3.00;;;1.57;;
19189;SDS011;9727;50.200;19.038;2023-08-07T09:14:20;1.67;;;1.50;;
19189;SDS011;9727;50.200;19.038;2023-08-07T09:16:48;1.53;;;1.43;;
19189;SDS011;9727;50.200;19.038;2023-08-07T09:19:20;2.47;;;1.87;;
19189;SDS011;9727;50.200;19.038;2023-08-07T09:21:47;1.73;;;1.63;;
19189;SDS011;9727;50.200;19.038;2023-08-07T09:24:15;1.77;;;1.50;;
19189;SDS011;9727;50.200;19.038;2023-08-07T09:26:50;1.90;;;1.70;;
19189;SDS011;9727;50.200;19.038;2023-08-07T09:29:18;1.40;;;1.30;;
19189;SDS011;9727;50.200;19.038;2023-08-07T09:31:46;2.40;;;1.33;;
19189;SDS011;9727;50.200;19.038;2023-08-07T09:34:20;3.53;;;1.67;;
19189;SDS011;9727;50.200;19.038;2023-08-07T09:36:47;1.80;;;1.47;;
19189;SDS011;9727;50.200;19.038;2023-08-07T09:39:22;4.70;;;1.80;;
19189;SDS011;9727;50.200;19.038;2023-08-07T09:41:52;1.20;;;1.10;;
19189;SDS011;9727;50.200;19.038;2023-08-07T09:44:19;1.40;;;1.30;;
19189;SDS011;9727;50.200;19.038;2023-08-07T09:46:45;2.63;;;1.40;;
19189;SDS011;9727;50.200;19.038;2023-08-07T09:49:25;1.37;;;1.27;;
19189;SDS011;9727;50.200;19.038;2023-08-07T09:51:58;1.87;;;1.43;;
19189;SDS011;9727;50.200;19.038;2023-08-07T09:54:32;2.33;;;1.47;;
19189;SDS011;9727;50.200;19.038;2023-08-07T09:57:01;2.80;;;1.47;;
19189;SDS011;9727;50.200;19.038;2023-08-07T09:59:28;2.10;;;1.40;;
19189;SDS011;9727;50.200;19.038;2023-08-07T10:01:55;1.97;;;1.80;;
19189;SDS011;9727;50.200;19.038;2023-08-07T10:04:21;3.53;;;1.50;;
19189;SDS011;9727;50.200;19.038;2023-08-07T10:06:48;1.77;;;1.60;;
19189;SDS011;9727;50.200;19.038;2023-08-07T10:09:19;2.90;;;1.85;;
19189;SDS011;9727;50.200;19.038;2023-08-07T10:11:46;3.03;;;1.50;;
19189;SDS011;9727;50.200;19.038;2023-08-07T10:14:21;2.38;;;1.65;;
19189;SDS011;9727;50.200;19.038;2023-08-07T10:16:48;1.85;;;1.67;;
19189;SDS011;9727;50.200;19.038;2023-08-07T10:19:18;2.10;;;1.50;;
19189;SDS011;9727;50.200;19.038;2023-08-07T10:21:45;4.70;;;1.43;;
19189;SDS011;9727;50.200;19.038;2023-08-07T10:24:12;2.15;;;1.40;;
19189;SDS011;9727;50.200;19.038;2023-08-07T10:26:44;1.40;;;1.30;;
19189;SDS011;9727;50.200;19.038;2023-08-07T10:32:06;2.20;;;1.45;;
19189;SDS011;9727;50.200;19.038;2023-08-07T10:34:40;1.70;;;1.60;;
19189;SDS011;9727;50.200;19.038;2023-08-07T10:37:07;1.58;;;1.48;;
19189;SDS011;9727;50.200;19.038;2023-08-07T10:39:33;4.10;;;1.77;;
19189;SDS011;9727;50.200;19.038;2023-08-07T10:42:01;2.28;;;1.75;;
19189;SDS011;9727;50.200;19.038;2023-08-07T10:44:30;2.80;;;2.00;;
19189;SDS011;9727;50.200;19.038;2023-08-07T10:46:58;9.63;;;2.80;;
19189;SDS011;9727;50.200;19.038;2023-08-07T10:49:32;3.77;;;2.57;;
19189;SDS011;9727;50.200;19.038;2023-08-07T10:52:01;4.10;;;2.30;;
19189;SDS011;9727;50.200;19.038;2023-08-07T10:54:28;4.07;;;2.40;;
19189;SDS011;9727;50.200;19.038;2023-08-07T10:56:55;4.90;;;2.63;;
19189;SDS011;9727;50.200;19.038;2023-08-07T10:59:27;3.37;;;2.50;;
19189;SDS011;9727;50.200;19.038;2023-08-07T11:01:57;8.43;;;2.33;;
19189;SDS011;9727;50.200;19.038;2023-08-07T11:04:25;2.93;;;2.20;;
19189;SDS011;9727;50.200;19.038;2023-08-07T11:06:55;4.17;;;2.60;;
19189;SDS011;9727;50.200;19.038;2023-08-07T11:09:22;3.37;;;2.20;;
19189;SDS011;9727;50.200;19.038;2023-08-07T11:11:49;4.63;;;2.70;;
19189;SDS011;9727;50.200;19.038;2023-08-07T11:14:18;4.20;;;2.80;;
19189;SDS011;9727;50.200;19.038;2023-08-07T11:16:45;4.23;;;2.80;;
19189;SDS011;9727;50.200;19.038;2023-08-07T11:19:13;4.10;;;2.40;;
19189;SDS011;9727;50.200;19.038;2023-08-07T11:21:45;4.70;;;2.60;;
19189;SDS011;9727;50.200;19.038;2023-08-07T11:24:19;5.33;;;2.70;;
19189;SDS011;9727;50.200;19.038;2023-08-07T11:26:46;3.93;;;2.80;;
19189;SDS011;9727;50.200;19.038;2023-08-07T11:29:18;6.90;;;3.10;;
19189;SDS011;9727;50.200;19.038;2023-08-07T11:31:47;3.93;;;2.63;;
19189;SDS011;9727;50.200;19.038;2023-08-07T11:34:20;4.83;;;2.93;;
19189;SDS011;9727;50.200;19.038;2023-08-07T11:36:47;3.90;;;2.67;;
19189;SDS011;9727;50.200;19.038;2023-08-07T11:42:07;4.93;;;3.17;;
19189;SDS011;9727;50.200;19.038;2023-08-07T11:44:33;3.47;;;2.63;;
19189;SDS011;9727;50.200;19.038;2023-08-07T11:47:00;5.67;;;3.00;;
19189;SDS011;9727;50.200;19.038;2023-08-07T11:49:27;3.63;;;2.90;;
19189;SDS011;9727;50.200;19.038;2023-08-07T11:51:54;5.03;;;3.27;;
19189;SDS011;9727;50.200;19.038;2023-08-07T11:54:20;3.80;;;2.77;;
19189;SDS011;9727;50.200;19.038;2023-08-07T11:56:47;6.33;;;3.20;;
19189;SDS011;9727;50.200;19.038;2023-08-07T11:59:24;5.73;;;3.57;;
19189;SDS011;9727;50.200;19.038;2023-08-07T12:01:50;6.10;;;3.87;;
19189;SDS011;9727;50.200;19.038;2023-08-07T12:04:19;4.93;;;3.57;;
19189;SDS011;9727;50.200;19.038;2023-08-07T12:06:52;6.87;;;3.67;;
19189;SDS011;9727;50.200;19.038;2023-08-07T12:09:19;5.43;;;3.83;;
19189;SDS011;9727;50.200;19.038;2023-08-07T12:11:46;4.80;;;4.03;;
19189;SDS011;9727;50.200;19.038;2023-08-07T12:14:18;4.30;;;3.73;;
19189;SDS011;9727;50.200;19.038;2023-08-07T12:16:47;6.23;;;3.70;;
19189;SDS011;9727;50.200;19.038;2023-08-07T12:19:18;6.97;;;3.50;;
19189;SDS011;9727;50.200;19.038;2023-08-07T12:21:48;4.87;;;3.27;;
19189;SDS011;9727;50.200;19.038;2023-08-07T12:24:19;4.63;;;3.00;;
19189;SDS011;9727;50.200;19.038;2023-08-07T12:26:49;4.43;;;3.70;;
19189;SDS011;9727;50.200;19.038;2023-08-07T12:29:18;6.50;;;3.57;;
19189;SDS011;9727;50.200;19.038;2023-08-07T12:31:47;5.37;;;3.83;;
19189;SDS011;9727;50.200;19.038;2023-08-07T12:34:19;4.50;;;3.53;;
19189;SDS011;9727;50.200;19.038;2023-08-07T12:36:46;5.77;;;3.47;;
19189;SDS011;9727;50.200;19.038;2023-08-07T12:39:22;6.00;;;3.67;;
19189;SDS011;9727;50.200;19.038;2023-08-07T12:41:50;3.60;;;3.23;;
19189;SDS011;9727;50.200;19.038;2023-08-07T12:44:18;5.73;;;3.73;;
19189;SDS011;9727;50.200;19.038;2023-08-07T12:46:48;5.43;;;3.60;;
19189;SDS011;9727;50.200;19.038;2023-08-07T12:49:21;7.33;;;3.87;;
19189;SDS011;9727;50.200;19.038;2023-08-07T12:51:51;4.77;;;3.67;;
19189;SDS011;9727;50.200;19.038;2023-08-07T12:54:19;7.47;;;4.63;;
19189;SDS011;9727;50.200;19.038;2023-08-07T12:56:47;6.80;;;4.20;;
19189;SDS011;9727;50.200;19.038;2023-08-07T13:02:12;6.70;;;4.43;;
19189;SDS011;9727;50.200;19.038;2023-08-07T13:04:46;8.47;;;4.67;;
19189;SDS011;9727;50.200;19.038;2023-08-07T13:07:21;9.70;;;4.00;;
19189;SDS011;9727;50.200;19.038;2023-08-07T13:09:50;9.90;;;5.27;;
19189;SDS011;9727;50.200;19.038;2023-08-07T13:12:18;7.77;;;5.03;;
19189;SDS011;9727;50.200;19.038;2023-08-07T13:14:48;6.70;;;5.07;;
19189;SDS011;9727;50.200;19.038;2023-08-07T13:17:23;7.10;;;5.07;;
19189;SDS011;9727;50.200;19.038;2023-08-07T13:19:52;6.33;;;5.40;;
19189;SDS011;9727;50.200;19.038;2023-08-07T13:22:19;7.57;;;5.57;;
19189;SDS011;9727;50.200;19.038;2023-08-07T13:24:47;11.43;;;6.73;;
19189;SDS011;9727;50.200;19.038;2023-08-07T13:27:17;8.70;;;6.70;;
19189;SDS011;9727;50.200;19.038;2023-08-07T13:29:44;9.43;;;6.83;;
19189;SDS011;9727;50.200;19.038;2023-08-07T13:32:15;8.07;;;6.47;;
19189;SDS011;9727;50.200;19.038;2023-08-07T13:34:52;8.90;;;6.03;;
19189;SDS011;9727;50.200;19.038;2023-08-07T13:37:20;8.47;;;6.40;;
19189;SDS011;9727;50.200;19.038;2023-08-07T13:39:48;9.17;;;6.13;;
19189;SDS011;9727;50.200;19.038;2023-08-07T13:42:18;5.87;;;5.27;;
19189;SDS011;9727;50.200;19.038;2023-08-07T13:44:47;7.63;;;5.30;;
19189;SDS011;9727;50.200;19.038;2023-08-07T13:47:25;10.20;;;6.10;;
19189;SDS011;9727;50.200;19.038;2023-08-07T13:49:53;8.53;;;5.47;;
19189;SDS011;9727;50.200;19.038;2023-08-07T13:52:24;7.17;;;5.77;;
19189;SDS011;9727;50.200;19.038;2023-08-07T13:54:52;11.20;;;6.17;;
19189;SDS011;9727;50.200;19.038;2023-08-07T13:57:20;8.37;;;5.80;;
19189;SDS011;9727;50.200;19.038;2023-08-07T13:59:48;6.47;;;5.00;;
19189;SDS011;9727;50.200;19.038;2023-08-07T14:02:19;7.33;;;5.17;;
19189;SDS011;9727;50.200;19.038;2023-08-07T14:04:46;6.70;;;4.50;;
19189;SDS011;9727;50.200;19.038;2023-08-07T14:07:20;7.47;;;5.10;;
19189;SDS011;9727;50.200;19.038;2023-08-07T14:09:52;5.77;;;4.67;;
19189;SDS011;9727;50.200;19.038;2023-08-07T14:12:19;5.77;;;4.53;;
19189;SDS011;9727;50.200;19.038;2023-08-07T14:14:47;6.07;;;4.40;;
19189;SDS011;9727;50.200;19.038;2023-08-07T14:17:16;7.37;;;4.30;;
19189;SDS011;9727;50.200;19.038;2023-08-07T14:19:45;6.07;;;4.30;;
19189;SDS011;9727;50.200;19.038;2023-08-07T14:22:16;5.17;;;4.07;;
19189;SDS011;9727;50.200;19.038;2023-08-07T14:24:45;5.43;;;3.77;;
19189;SDS011;9727;50.200;19.038;2023-08-07T14:27:17;5.27;;;3.57;;
19189;SDS011;9727;50.200;19.038;2023-08-07T14:29:45;4.90;;;3.95;;
19189;SDS011;9727;50.200;19.038;2023-08-07T14:32:12;5.78;;;3.88;;
19189;SDS011;9727;50.200;19.038;2023-08-07T14:34:49;4.03;;;3.17;;
19189;SDS011;9727;50.200;19.038;2023-08-07T14:37:16;6.18;;;3.42;;
19189;SDS011;9727;50.200;19.038;2023-08-07T14:39:48;4.65;;;3.40;;
19189;SDS011;9727;50.200;19.038;2023-08-07T14:42:22;4.93;;;3.70;;
19189;SDS011;9727;50.200;19.038;2023-08-07T14:44:49;4.18;;;3.38;;
19189;SDS011;9727;50.200;19.038;2023-08-07T14:47:19;6.40;;;3.70;;
19189;SDS011;9727;50.200;19.038;2023-08-07T14:49:46;3.90;;;3.25;;
19189;SDS011;9727;50.200;19.038;2023-08-07T14:52:20;5.18;;;3.33;;
19189;SDS011;9727;50.200;19.038;2023-08-07T14:54:49;5.82;;;3.05;;
19189;SDS011;9727;50.200;19.038;2023-08-07T14:57:18;5.97;;;3.22;;
19189;SDS011;9727;50.200;19.038;2023-08-07T14:59:46;4.82;;;3.53;;
19189;SDS011;9727;50.200;19.038;2023-08-07T15:02:17;6.07;;;3.67;;
19189;SDS011;9727;50.200;19.038;2023-08-07T15:04:45;4.78;;;3.25;;